Time;durP1;ratioP1;P1;durP2;ratioP2;P2;SDS_P1;SDS_P2;PMS_P1;PMS_P2;Temp;Humidity;BMP_temperature;BMP_pressure;BME280_temperature;BME280_humidity;BME280_pressure;Samples;Min_cycle;Max_cycle;Signal;HPM_P1;HPM_P2
2021/04/02 00:00:44;;;;;;;55.28;25.55;;;13.40;76.00;;;;;;5098523;28;20036;-71
2021/04/02 00:03:27;;;;;;;49.42;23.40;;;13.40;75.70;;;;;;5098465;28;20297;-71
2021/04/02 00:05:53;;;;;;;41.72;19.85;;;13.50;75.00;;;;;;5098436;28;20089;-71
2021/04/02 00:08:19;;;;;;;43.80;18.98;;;13.40;74.30;;;;;;5098434;28;20095;-71
2021/04/02 00:10:48;;;;;;;46.78;21.80;;;13.40;73.50;;;;;;5080282;28;20067;-71
2021/04/02 00:13:25;;;;;;;58.00;23.00;;;13.40;74.50;;;;;;5098146;28;20043;-73
2021/04/02 00:15:51;;;;;;;50.60;23.92;;;13.50;75.10;;;;;;5098495;28;20118;-73
2021/04/02 00:18:17;;;;;;;47.97;22.08;;;13.60;75.00;;;;;;5098212;28;20017;-71
2021/04/02 00:20:43;;;;;;;44.78;21.08;;;13.60;74.00;;;;;;5080152;28;20024;-73
2021/04/02 00:23:10;;;;;;;53.90;24.70;;;13.70;73.30;;;;;;5080119;28;20102;-71
2021/04/02 00:25:36;;;;;;;66.05;28.73;;;13.80;73.80;;;;;;5098266;28;20124;-72
2021/04/02 00:28:06;;;;;;;65.13;28.15;;;13.90;74.50;;;;;;5097958;28;20056;-72
2021/04/02 00:30:55;;;;;;;55.95;25.23;;;13.90;74.80;;;;;;5098116;28;20032;-73
2021/04/02 00:33:23;;;;;;;56.70;26.33;;;13.90;74.70;;;;;;5098105;28;20024;-73
2021/04/02 00:35:49;;;;;;;54.97;24.48;;;13.90;74.40;;;;;;5097813;28;20356;-73
2021/04/02 00:38:15;;;;;;;46.05;21.05;;;14.00;74.30;;;;;;5097960;28;20095;-73
2021/04/02 00:40:52;;;;;;;56.28;24.30;;;14.00;73.50;;;;;;5097966;28;20055;-73
2021/04/02 00:43:23;;;;;;;52.22;24.80;;;14.00;73.80;;;;;;5097917;28;20028;-73
2021/04/02 00:45:49;;;;;;;56.70;25.70;;;14.00;73.40;;;;;;5097840;28;20028;-73
2021/04/02 00:48:15;;;;;;;55.83;25.05;;;14.00;73.90;;;;;;5079685;28;20035;-73
2021/04/02 00:50:42;;;;;;;69.18;30.08;;;14.00;74.00;;;;;;5097579;28;20062;-73
2021/04/02 00:53:09;;;;;;;67.10;29.27;;;14.00;74.20;;;;;;5097715;28;20028;-71
2021/04/02 00:55:36;;;;;;;70.85;30.63;;;14.10;74.30;;;;;;5097700;28;20028;-71
2021/04/02 00:58:03;;;;;;;63.90;29.60;;;14.10;74.20;;;;;;5097715;28;20324;-71
2021/04/02 01:00:31;;;;;;;54.95;26.67;;;14.20;74.20;;;;;;5097398;28;20031;-71
2021/04/02 01:02:57;;;;;;;64.57;26.20;;;14.20;73.60;;;;;;5097598;28;20119;-71
2021/04/02 01:05:26;;;;;;;49.08;23.38;;;14.20;73.00;;;;;;5097483;28;20115;-71
2021/04/02 01:07:55;;;;;;;45.92;22.17;;;14.10;73.00;;;;;;5097470;28;20309;-71
2021/04/02 01:10:21;;;;;;;50.75;23.50;;;14.10;73.10;;;;;;5097165;28;20027;-72
2021/04/02 01:12:49;;;;;;;54.88;25.52;;;14.10;73.40;;;;;;5097189;28;20024;-73
2021/04/02 01:15:31;;;;;;;65.13;28.17;;;14.00;73.80;;;;;;5097046;28;20024;-73
2021/04/02 01:17:58;;;;;;;62.88;28.00;;;13.90;74.40;;;;;;5097113;28;20416;-73
2021/04/02 01:20:29;;;;;;;65.32;28.13;;;13.80;74.80;;;;;;5097047;28;20024;-73
2021/04/02 01:22:59;;;;;;;57.40;27.25;;;13.70;75.10;;;;;;5097069;28;20035;-71
2021/04/02 01:25:25;;;;;;;54.17;27.30;;;13.70;74.90;;;;;;5096940;28;20038;-73
2021/04/02 01:28:02;;;;;;;53.20;24.58;;;13.70;74.30;;;;;;5096823;28;20048;-73
2021/04/02 01:30:29;;;;;;;61.60;28.63;;;13.60;74.00;;;;;;5096919;28;20032;-73
2021/04/02 01:32:58;;;;;;;53.65;25.80;;;13.60;73.90;;;;;;5096908;28;20400;-73
2021/04/02 01:35:28;;;;;;;59.05;27.60;;;13.50;74.10;;;;;;5097065;28;20099;-71
2021/04/02 01:38:13;;;;;;;63.42;28.38;;;13.50;74.70;;;;;;5097122;28;20385;-71
2021/04/02 01:40:43;;;;;;;70.18;31.08;;;13.50;75.00;;;;;;5096818;28;20109;-73
2021/04/02 01:43:12;;;;;;;64.65;31.13;;;13.40;75.70;;;;;;5096728;28;20032;-72
2021/04/02 01:45:41;;;;;;;65.10;29.50;;;13.30;76.00;;;;;;5097627;28;20031;-73
2021/04/02 01:48:09;;;;;;;72.60;31.65;;;13.20;75.90;;;;;;5103526;28;20035;-72
2021/04/02 01:50:39;;;;;;;65.10;27.67;;;13.20;76.00;;;;;;5103558;28;20404;-72
2021/04/02 01:53:07;;;;;;;72.55;29.55;;;13.10;76.10;;;;;;5103802;28;20310;-72
2021/04/02 01:55:32;;;;;;;62.38;28.65;;;13.10;76.20;;;;;;5103420;28;20028;-73
2021/04/02 01:57:59;;;;;;;58.67;26.73;;;13.10;76.30;;;;;;5103440;28;20429;-73
2021/04/02 02:00:36;;;;;;;60.42;27.52;;;13.00;75.80;;;;;;5103413;28;20098;-71
2021/04/02 02:03:03;;;;;;;39.95;17.92;;;13.10;75.60;;;;;;5103483;28;20036;-71
2021/04/02 02:05:30;;;;;;;55.88;24.15;;;13.10;72.30;;;;;;5103326;28;20024;-71
2021/04/02 02:07:59;;;;;;;62.78;29.08;;;13.10;73.70;;;;;;5103325;28;20028;-71
2021/04/02 02:10:26;;;;;;;71.95;29.25;;;13.00;75.40;;;;;;5103490;28;20031;-71
2021/04/02 02:12:54;;;;;;;63.83;27.73;;;13.00;76.00;;;;;;5103235;28;20412;-71
2021/04/02 02:15:20;;;;;;;59.47;28.08;;;13.00;76.30;;;;;;5103503;28;20038;-71
2021/04/02 02:17:57;;;;;;;57.22;27.63;;;12.90;76.30;;;;;;5103521;28;20028;-71
2021/04/02 02:20:24;;;;;;;54.97;25.30;;;12.90;76.20;;;;;;5103521;28;20035;-71
2021/04/02 02:22:54;;;;;;;60.30;26.23;;;12.90;76.10;;;;;;5103342;28;20055;-71
2021/04/02 02:25:19;;;;;;;60.33;27.02;;;12.90;76.30;;;;;;5103376;28;20115;-73
2021/04/02 02:27:45;;;;;;;56.50;26.67;;;12.80;76.80;;;;;;5102997;28;20115;-72
2021/04/02 02:30:15;;;;;;;63.15;28.00;;;12.80;77.30;;;;;;5103149;28;20035;-71
2021/04/02 02:32:40;;;;;;;65.82;28.30;;;12.70;77.50;;;;;;5103228;28;20024;-71
2021/04/02 02:35:08;;;;;;;63.42;29.48;;;12.80;77.40;;;;;;5103033;28;20160;-73
2021/04/02 02:37:38;;;;;;;62.53;28.42;;;12.70;77.80;;;;;;5103289;28;20048;-71
2021/04/02 02:40:15;;;;;;;67.18;29.15;;;12.70;78.00;;;;;;5103127;28;20467;-71
2021/04/02 02:42:41;;;;;;;70.15;28.45;;;12.70;78.20;;;;;;5103595;28;20031;-71
2021/04/02 02:45:10;;;;;;;65.63;29.50;;;12.70;78.10;;;;;;5102941;28;20027;-71
2021/04/02 02:47:35;;;;;;;65.22;30.48;;;12.70;78.10;;;;;;5102928;28;20020;-71
2021/04/02 02:50:08;;;;;;;62.83;29.50;;;12.70;78.20;;;;;;5084969;28;20317;-73
2021/04/02 02:52:37;;;;;;;69.85;31.20;;;12.60;78.20;;;;;;5084994;28;20028;-72
2021/04/02 02:55:04;;;;;;;62.80;30.83;;;12.50;78.80;;;;;;5102893;28;20038;-72
2021/04/02 02:57:32;;;;;;;62.33;30.27;;;12.50;78.60;;;;;;5083256;28;20430;-73
2021/04/02 02:59:59;;;;;;;71.20;28.58;;;12.50;78.30;;;;;;5099319;28;20035;-73
2021/04/02 03:02:26;;;;;;;62.58;27.15;;;12.50;77.70;;;;;;5099582;28;20485;-72
2021/04/02 03:04:53;;;;;;;57.85;26.23;;;12.60;77.60;;;;;;5099540;28;20049;-72
2021/04/02 03:07:20;;;;;;;56.58;25.48;;;12.60;77.00;;;;;;5099664;28;20036;-72
2021/04/02 03:09:49;;;;;;;59.78;27.17;;;12.70;76.90;;;;;;5081561;28;20020;-73
2021/04/02 03:12:15;;;;;;;63.47;29.20;;;12.70;77.10;;;;;;5099391;28;20027;-72
2021/04/02 03:14:43;;;;;;;60.28;30.77;;;12.60;77.70;;;;;;5099295;28;20094;-73
2021/04/02 03:17:09;;;;;;;65.28;30.13;;;12.70;78.10;;;;;;5099312;28;20076;-72
2021/04/02 03:19:38;;;;;;;60.83;31.35;;;12.60;78.00;;;;;;5099225;28;20043;-73
2021/04/02 03:22:05;;;;;;;67.60;30.98;;;12.60;77.90;;;;;;5099500;28;20400;-71
2021/04/02 03:24:31;;;;;;;62.15;32.47;;;12.60;78.30;;;;;;5099164;28;20024;-71
2021/04/02 03:26:58;;;;;;;64.88;32.47;;;12.60;78.50;;;;;;5099154;28;20032;-73
2021/04/02 03:29:25;;;;;;;67.45;32.55;;;12.60;78.60;;;;;;5077641;28;20049;-73
2021/04/02 03:31:56;;;;;;;66.30;32.13;;;12.60;78.80;;;;;;5078836;28;20109;-71
2021/04/02 03:34:23;;;;;;;60.63;32.70;;;12.60;78.80;;;;;;5079028;28;20400;-71
2021/04/02 03:36:51;;;;;;;62.47;33.28;;;12.60;78.50;;;;;;5079044;28;20025;-73
2021/04/02 03:39:21;;;;;;;59.10;31.60;;;12.60;78.50;;;;;;5078792;28;20020;-73
2021/04/02 03:41:52;;;;;;;67.25;33.95;;;12.60;78.30;;;;;;5078803;28;20024;-73
2021/04/02 03:44:20;;;;;;;64.28;31.40;;;12.60;78.50;;;;;;5077535;28;20021;-73
2021/04/02 03:46:48;;;;;;;65.32;33.22;;;12.60;78.20;;;;;;5078817;28;20028;-73
2021/04/02 03:49:18;;;;;;;72.22;32.00;;;12.60;78.20;;;;;;5078615;28;20107;-73
2021/04/02 03:51:47;;;;;;;66.43;32.95;;;12.50;78.20;;;;;;5079402;28;20300;-73
2021/04/02 03:54:14;;;;;;;63.42;31.63;;;12.60;78.50;;;;;;5078324;28;20107;-73
2021/04/02 03:56:43;;;;;;;60.28;31.80;;;12.60;78.60;;;;;;5078413;28;20082;-73
2021/04/02 03:59:12;;;;;;;65.68;31.60;;;12.40;78.90;;;;;;5078266;28;20031;-73
2021/04/02 04:01:45;;;;;;;62.63;30.38;;;12.30;79.20;;;;;;5078550;28;20020;-73
2021/04/02 04:04:11;;;;;;;49.22;21.48;;;12.20;79.50;;;;;;5078174;28;20111;-73
2021/04/02 04:06:38;;;;;;;53.15;23.00;;;12.10;77.70;;;;;;5078232;28;20099;-73
2021/04/02 04:09:10;;;;;;;54.28;26.60;;;12.10;76.50;;;;;;5077828;28;20036;-73
2021/04/02 04:11:37;;;;;;;62.85;32.17;;;12.20;77.60;;;;;;5078301;28;20433;-73
2021/04/02 04:14:04;;;;;;;61.72;30.98;;;12.20;78.70;;;;;;5077932;28;20020;-73
2021/04/02 04:16:31;;;;;;;59.95;28.92;;;12.10;79.40;;;;;;5076921;28;20416;-73
2021/04/02 04:19:01;;;;;;;59.90;28.42;;;12.10;79.60;;;;;;5077998;28;20028;-73
2021/04/02 04:21:51;;;;;;;58.22;27.48;;;12.10;79.50;;;;;;5077969;28;20355;-73
2021/04/02 04:24:19;;;;;;;57.40;26.75;;;12.00;79.40;;;;;;5077117;28;20078;-73
2021/04/02 04:26:47;;;;;;;54.45;25.75;;;12.10;79.30;;;;;;5077799;28;20047;-71
2021/04/02 04:29:16;;;;;;;52.50;27.33;;;12.10;78.80;;;;;;5093987;28;20056;-73
2021/04/02 04:31:43;;;;;;;61.38;29.08;;;12.10;78.70;;;;;;5097953;28;20031;-73
2021/04/02 04:34:10;;;;;;;57.90;27.67;;;12.10;78.60;;;;;;5098119;28;20082;-73
2021/04/02 04:36:38;;;;;;;57.65;27.85;;;12.10;78.60;;;;;;5098099;28;20354;-73
2021/04/02 04:39:06;;;;;;;51.42;26.35;;;12.10;78.30;;;;;;5097803;28;20020;-73
2021/04/02 04:41:34;;;;;;;51.35;25.13;;;12.10;78.70;;;;;;5079776;28;20031;-73
2021/04/02 04:44:01;;;;;;;55.85;25.08;;;12.10;78.70;;;;;;5097645;28;20024;-71
2021/04/02 04:46:26;;;;;;;57.53;25.05;;;12.10;78.60;;;;;;5097604;28;20411;-73
2021/04/02 04:48:52;;;;;;;46.97;21.83;;;12.10;77.80;;;;;;5098085;28;20028;-71
2021/04/02 04:51:20;;;;;;;49.22;21.73;;;12.10;76.80;;;;;;5097782;28;20421;-71
2021/04/02 04:53:51;;;;;;;49.42;22.75;;;12.10;76.30;;;;;;5097850;28;20035;-71
2021/04/02 04:56:18;;;;;;;34.80;17.02;;;12.10;75.80;;;;;;5097859;28;20078;-73
2021/04/02 04:58:47;;;;;;;49.42;13.68;;;12.10;75.30;;;;;;5097719;28;20313;-73
2021/04/02 05:01:14;;;;;;;579.83;43.58;;;12.10;73.40;;;;;;5097656;28;20028;-73
2021/04/02 05:03:40;;;;;;;37.85;14.13;;;12.00;73.70;;;;;;5097295;28;20028;-73
2021/04/02 05:06:08;;;;;;;41.40;18.92;;;12.00;74.50;;;;;;5097549;28;20126;-73
2021/04/02 05:08:40;;;;;;;43.65;21.35;;;11.90;75.50;;;;;;5097291;28;20407;-73
2021/04/02 05:11:09;;;;;;;76.15;23.35;;;11.90;76.80;;;;;;5097398;28;20028;-73
2021/04/02 05:13:36;;;;;;;58.00;23.15;;;11.80;77.20;;;;;;5097370;28;20316;-73
2021/04/02 05:16:04;;;;;;;39.90;20.20;;;11.90;77.70;;;;;;5097462;28;20249;-73
2021/04/02 05:18:31;;;;;;;45.33;22.52;;;11.90;77.80;;;;;;5097135;28;20016;-73
2021/04/02 05:20:56;;;;;;;42.97;21.52;;;11.90;77.60;;;;;;5096377;28;20028;-73
2021/04/02 05:23:22;;;;;;;49.05;22.02;;;12.00;77.70;;;;;;5096892;28;20077;-73
2021/04/02 05:25:48;;;;;;;57.88;23.00;;;12.00;77.70;;;;;;5097176;28;20039;-73
2021/04/02 05:28:14;;;;;;;46.22;21.52;;;12.10;77.80;;;;;;5097167;28;20451;-73
2021/04/02 05:30:39;;;;;;;45.05;21.90;;;12.10;77.90;;;;;;5097140;28;20366;-73
2021/04/02 05:33:05;;;;;;;47.80;23.08;;;12.10;78.00;;;;;;5096958;28;20020;-71
2021/04/02 05:35:32;;;;;;;52.63;24.45;;;12.20;78.40;;;;;;5097019;28;20430;-71
2021/04/02 05:37:59;;;;;;;50.78;23.67;;;12.20;78.70;;;;;;5096920;28;20017;-71
2021/04/02 05:40:25;;;;;;;50.88;24.40;;;12.30;78.60;;;;;;5097125;28;20320;-73
2021/04/02 05:43:06;;;;;;;52.22;25.80;;;12.40;78.60;;;;;;5096880;28;20059;-71
2021/04/02 05:45:36;;;;;;;49.17;23.15;;;12.50;78.90;;;;;;5079099;28;20032;-73
2021/04/02 05:48:04;;;;;;;57.00;27.58;;;12.40;78.40;;;;;;5096767;28;20028;-73
2021/04/02 05:50:31;;;;;;;49.08;23.60;;;12.50;79.40;;;;;;5096975;28;20059;-73
2021/04/02 05:53:05;;;;;;;40.50;19.95;;;12.60;79.00;;;;;;5096969;28;20305;-73
2021/04/02 05:55:42;;;;;;;35.67;17.50;;;12.70;77.80;;;;;;5096695;28;20047;-73
2021/04/02 05:58:10;;;;;;;38.00;18.17;;;12.80;78.00;;;;;;5096975;28;20016;-73
2021/04/02 06:00:37;;;;;;;36.72;17.17;;;13.00;78.00;;;;;;5096684;28;20082;-73
2021/04/02 06:03:08;;;;;;;44.17;19.83;;;13.20;77.40;;;;;;5078759;28;20055;-73
2021/04/02 06:05:34;;;;;;;50.60;22.15;;;13.30;77.70;;;;;;5096987;28;20031;-73
2021/04/02 06:08:00;;;;;;;45.97;22.20;;;13.50;76.40;;;;;;5096562;28;20101;-73
2021/04/02 06:10:26;;;;;;;43.60;21.88;;;13.70;75.80;;;;;;5096447;28;20116;-71
2021/04/02 06:12:52;;;;;;;47.33;21.20;;;13.80;75.10;;;;;;5096547;28;20024;-73
2021/04/02 06:15:19;;;;;;;43.63;19.55;;;13.90;74.50;;;;;;5096424;28;20024;-73
2021/04/02 06:18:03;;;;;;;39.22;20.20;;;14.00;75.70;;;;;;5096762;28;20048;-73
2021/04/02 06:20:39;;;;;;;39.83;18.90;;;14.10;74.60;;;;;;5096778;28;20085;-71
2021/04/02 06:23:26;;;;;;;38.88;18.55;;;14.20;72.20;;;;;;5096836;28;20028;-71
2021/04/02 06:25:57;;;;;;;36.47;17.58;;;14.30;71.70;;;;;;5096722;28;20339;-71
2021/04/02 06:28:49;;;;;;;35.50;17.85;;;14.50;72.30;;;;;;5096403;28;20312;-73
2021/04/02 06:31:17;;;;;;;22.60;12.95;;;14.60;72.10;;;;;;5091992;28;20404;-73
2021/04/02 06:33:50;;;;;;;26.15;13.40;;;14.70;69.10;;;;;;5099388;28;20031;-73
2021/04/02 06:36:16;;;;;;;29.65;14.02;;;14.80;70.00;;;;;;5100329;28;20362;-73
2021/04/02 06:38:44;;;;;;;31.52;14.40;;;15.00;67.70;;;;;;5100168;28;20023;-73
2021/04/02 06:41:11;;;;;;;31.90;16.33;;;15.00;67.40;;;;;;5100102;28;20099;-73
2021/04/02 06:43:43;;;;;;;33.10;17.13;;;15.10;68.30;;;;;;5099951;28;20052;-73
2021/04/02 06:46:11;;;;;;;44.05;19.90;;;15.20;68.50;;;;;;5100006;28;20036;-71
2021/04/02 06:48:37;;;;;;;32.25;15.48;;;15.20;68.00;;;;;;5100256;28;20070;-71
2021/04/02 06:51:10;;;;;;;31.50;14.57;;;15.30;66.20;;;;;;5099902;28;20032;-71
2021/04/02 06:53:37;;;;;;;29.83;13.23;;;15.40;66.50;;;;;;5099754;28;20028;-71
2021/04/02 06:56:06;;;;;;;27.70;13.52;;;15.50;67.60;;;;;;5100240;28;20088;-71
2021/04/02 06:58:32;;;;;;;30.70;14.27;;;15.70;66.20;;;;;;5100016;28;20021;-73
2021/04/02 07:01:03;;;;;;;30.55;13.25;;;15.80;63.90;;;;;;5099988;28;20317;-73
2021/04/02 07:03:34;;;;;;;32.03;14.45;;;15.90;64.80;;;;;;5099685;28;20073;-73
2021/04/02 07:06:05;;;;;;;31.67;14.57;;;16.00;64.50;;;;;;5099654;28;20031;-73
2021/04/02 07:08:33;;;;;;;33.08;14.95;;;16.10;62.70;;;;;;5100044;28;20419;-73
2021/04/02 07:11:00;;;;;;;31.17;13.93;;;16.20;63.20;;;;;;5099443;28;20425;-73
2021/04/02 07:13:28;;;;;;;32.40;13.93;;;16.30;61.80;;;;;;5099399;28;20095;-73
2021/04/02 07:15:57;;;;;;;33.53;15.02;;;16.40;63.60;;;;;;5099717;28;20020;-73
2021/04/02 07:18:23;;;;;;;30.40;14.60;;;16.60;62.80;;;;;;5099355;28;20024;-73
2021/04/02 07:20:49;;;;;;;31.13;15.02;;;16.80;62.90;;;;;;5099322;28;20024;-73
2021/04/02 07:23:15;;;;;;;39.40;18.52;;;17.00;63.20;;;;;;5099563;28;20121;-73
2021/04/02 07:25:43;;;;;;;34.00;17.05;;;17.10;60.10;;;;;;5099291;28;20431;-73
2021/04/02 07:28:09;;;;;;;42.17;20.92;;;17.40;61.30;;;;;;5099202;28;20090;-73
2021/04/02 07:30:36;;;;;;;37.63;20.45;;;17.80;61.60;;;;;;5099117;28;20339;-73
2021/04/02 07:33:08;;;;;;;35.72;17.30;;;18.20;61.10;;;;;;5099344;28;20107;-71
2021/04/02 07:35:39;;;;;;;24.92;13.15;;;18.70;60.10;;;;;;5099091;28;20408;-71
2021/04/02 07:38:15;;;;;;;26.63;12.93;;;19.20;59.00;;;;;;5099062;28;20396;-72
2021/04/02 07:40:47;;;;;;;27.98;13.10;;;19.50;57.00;;;;;;5099026;28;20054;-73
2021/04/02 07:43:12;;;;;;;31.15;13.10;;;19.50;56.80;;;;;;5099029;28;20085;-73
2021/04/02 07:45:38;;;;;;;24.90;13.43;;;19.30;55.50;;;;;;5098207;28;20024;-73
2021/04/02 07:48:15;;;;;;;27.90;12.90;;;19.10;56.60;;;;;;5099051;28;20434;-73
2021/04/02 07:50:49;;;;;;;25.77;12.23;;;19.10;56.90;;;;;;5098870;28;20312;-73
2021/04/02 07:53:18;;;;;;;22.80;12.10;;;19.30;55.80;;;;;;5098965;28;20024;-73
2021/04/02 07:56:10;;;;;;;23.25;11.68;;;19.40;55.00;;;;;;5098681;28;20345;-73
2021/04/02 07:58:41;;;;;;;23.73;11.63;;;19.50;55.80;;;;;;5085127;28;20102;-73
2021/04/02 08:01:07;;;;;;;25.52;12.93;;;19.50;55.60;;;;;;5098607;28;20032;-73
2021/04/02 08:03:33;;;;;;;24.67;12.88;;;19.80;55.70;;;;;;5098703;28;20312;-71
2021/04/02 08:06:01;;;;;;;21.77;12.18;;;20.60;53.00;;;;;;5098470;28;20408;-73
2021/04/02 08:08:45;;;;;;;21.50;11.60;;;21.10;52.30;;;;;;5098630;28;20054;-73
2021/04/02 08:11:23;;;;;;;24.30;11.00;;;21.90;50.90;;;;;;5098804;28;20028;-73
2021/04/02 08:13:53;;;;;;;25.58;11.77;;;22.70;49.20;;;;;;5098271;28;20066;-73
2021/04/02 08:16:54;;;;;;;22.67;11.85;;;23.10;48.10;;;;;;5098302;28;20024;-72
2021/04/02 08:19:29;;;;;;;22.80;10.98;;;23.20;47.60;;;;;;5098398;28;20047;-72
2021/04/02 08:22:09;;;;;;;25.02;11.73;;;23.60;47.20;;;;;;5098184;28;20404;-73
2021/04/02 08:24:37;;;;;;;20.77;10.23;;;23.50;47.90;;;;;;5098057;28;20047;-73
2021/04/02 08:27:04;;;;;;;21.23;11.18;;;23.40;48.30;;;;;;5098035;28;20319;-73
2021/04/02 08:29:30;;;;;;;17.95;9.80;;;23.90;47.40;;;;;;5097798;28;20040;-72
2021/04/02 08:31:59;;;;;;;22.83;11.88;;;24.30;46.40;;;;;;5097911;28;20024;-72
2021/04/02 08:34:27;;;;;;;23.80;12.18;;;24.40;45.80;;;;;;5098088;28;20016;-74
2021/04/02 08:36:58;;;;;;;20.85;10.27;;;24.20;45.90;;;;;;5097896;28;20077;-73
2021/04/02 08:39:25;;;;;;;18.25;10.05;;;24.10;47.90;;;;;;5097845;28;20044;-72
2021/04/02 08:42:02;;;;;;;20.85;10.60;;;23.70;47.50;;;;;;5097820;28;20024;-73
2021/04/02 08:44:38;;;;;;;22.23;11.27;;;23.60;47.30;;;;;;5097823;28;20426;-73
2021/04/02 08:47:06;;;;;;;21.55;10.73;;;23.30;47.20;;;;;;5097646;28;20028;-73
2021/04/02 08:49:36;;;;;;;19.25;11.15;;;23.30;48.60;;;;;;5097809;28;20023;-72
2021/04/02 08:52:09;;;;;;;26.13;12.63;;;23.20;47.70;;;;;;5097648;28;20320;-72
2021/04/02 08:54:35;;;;;;;26.08;11.50;;;23.30;47.20;;;;;;5097885;28;20343;-72
2021/04/02 08:57:01;;;;;;;26.00;12.65;;;23.50;48.30;;;;;;5096656;28;20020;-72
2021/04/02 08:59:30;;;;;;;25.27;12.55;;;23.90;46.50;;;;;;5097592;28;20024;-72
2021/04/02 09:01:56;;;;;;;22.60;11.73;;;24.30;45.30;;;;;;5097417;28;20074;-72
2021/04/02 09:04:22;;;;;;;22.83;11.65;;;24.80;44.90;;;;;;5097553;28;20020;-72
2021/04/02 09:06:49;;;;;;;20.67;10.48;;;25.00;45.20;;;;;;5097349;28;20028;-72
2021/04/02 09:09:19;;;;;;;20.85;11.60;;;25.30;45.40;;;;;;5097309;28;20091;-72
2021/04/02 09:11:55;;;;;;;20.67;11.25;;;25.40;44.20;;;;;;5097377;28;20101;-72
2021/04/02 09:14:26;;;;;;;23.80;12.30;;;25.50;45.10;;;;;;5097173;28;20027;-72
2021/04/02 09:16:56;;;;;;;23.92;11.88;;;25.30;43.00;;;;;;5097253;28;20323;-72
2021/04/02 09:19:23;;;;;;;19.98;11.15;;;25.10;44.30;;;;;;5097493;28;20050;-72
2021/04/02 09:21:51;;;;;;;19.27;10.38;;;25.20;44.80;;;;;;5097050;28;20332;-72
2021/04/02 09:24:17;;;;;;;22.70;12.00;;;25.70;44.60;;;;;;5097034;28;20032;-72
2021/04/02 09:26:43;;;;;;;18.77;10.88;;;25.70;43.30;;;;;;5079151;28;20408;-72
2021/04/02 09:29:14;;;;;;;21.58;11.65;;;25.80;44.20;;;;;;5078969;28;20122;-72
2021/04/02 09:31:42;;;;;;;20.88;10.63;;;25.80;43.20;;;;;;5097209;28;20055;-72
2021/04/02 09:34:11;;;;;;;21.95;12.18;;;26.00;44.00;;;;;;5097084;28;20073;-72
2021/04/02 09:36:40;;;;;;;26.92;15.05;;;26.00;43.80;;;;;;5096806;28;20024;-73
2021/04/02 09:39:21;;;;;;;21.13;11.18;;;25.90;43.70;;;;;;5097135;28;20020;-72
2021/04/02 09:41:59;;;;;;;21.02;10.90;;;26.20;44.00;;;;;;5097106;28;20089;-72
2021/04/02 09:44:36;;;;;;;23.85;12.48;;;26.20;45.70;;;;;;5096880;28;20024;-72
2021/04/02 09:47:11;;;;;;;24.88;11.98;;;26.30;42.10;;;;;;5097103;28;20316;-73
2021/04/02 09:49:37;;;;;;;24.95;11.65;;;26.40;42.50;;;;;;5096858;28;20020;-74
2021/04/02 09:52:05;;;;;;;25.13;12.05;;;26.20;43.40;;;;;;5096766;28;20016;-73
2021/04/02 09:54:32;;;;;;;26.27;11.00;;;25.90;43.40;;;;;;5096666;28;20083;-71
2021/04/02 09:57:01;;;;;;;22.83;11.75;;;26.20;44.50;;;;;;5096991;28;20016;-73
2021/04/02 09:59:27;;;;;;;24.17;12.85;;;26.50;42.50;;;;;;5096825;28;20048;-73
2021/04/02 10:01:53;;;;;;;28.80;13.07;;;26.50;43.10;;;;;;5096542;28;20450;-73
2021/04/02 10:04:19;;;;;;;24.10;13.07;;;26.20;43.40;;;;;;5096558;28;20013;-74
2021/04/02 10:06:46;;;;;;;24.73;11.73;;;26.10;43.00;;;;;;5096563;28;20024;-73
2021/04/02 10:09:12;;;;;;;20.20;10.95;;;26.10;42.90;;;;;;5082852;28;20076;-73
2021/04/02 10:11:42;;;;;;;21.70;12.30;;;25.80;46.50;;;;;;5100344;28;20039;-72
2021/04/02 10:14:09;;;;;;;22.38;12.13;;;25.90;42.60;;;;;;5077367;28;20016;-73
2021/04/02 10:16:35;;;;;;;18.42;10.48;;;25.90;43.20;;;;;;5091506;28;20104;-72
2021/04/02 10:19:02;;;;;;;21.70;12.02;;;26.00;44.00;;;;;;5100786;28;20091;-72
2021/04/02 10:21:28;;;;;;;23.50;11.70;;;26.20;44.60;;;;;;5100520;28;20435;-73
2021/04/02 10:23:54;;;;;;;18.77;10.48;;;26.40;41.80;;;;;;5100787;28;20063;-73
2021/04/02 10:26:20;;;;;;;23.15;10.70;;;26.40;42.70;;;;;;5100438;28;20059;-73
2021/04/02 10:28:46;;;;;;;19.00;10.10;;;26.40;42.50;;;;;;5100162;28;20068;-72
2021/04/02 10:31:15;;;;;;;19.48;9.88;;;26.60;40.60;;;;;;5100222;28;20089;-72
2021/04/02 10:33:41;;;;;;;24.27;9.80;;;26.80;42.40;;;;;;5100301;28;20019;-72
2021/04/02 10:36:07;;;;;;;15.68;8.48;;;26.70;40.60;;;;;;5100259;28;20020;-73
2021/04/02 10:38:34;;;;;;;15.15;8.43;;;26.90;41.10;;;;;;5082181;28;20116;-73
2021/04/02 10:41:00;;;;;;;19.17;8.50;;;26.80;41.60;;;;;;5100382;28;20084;-72
2021/04/02 10:43:26;;;;;;;15.68;7.82;;;27.00;39.30;;;;;;5100034;28;20312;-72
2021/04/02 10:45:52;;;;;;;19.00;8.50;;;26.80;41.70;;;;;;5100058;28;20020;-72
2021/04/02 10:48:19;;;;;;;20.60;7.47;;;27.00;41.80;;;;;;5082053;28;20297;-73
2021/04/02 10:50:46;;;;;;;16.73;8.10;;;27.20;41.60;;;;;;5099885;28;20039;-72
2021/04/02 10:53:13;;;;;;;14.20;8.43;;;27.20;43.00;;;;;;5081943;28;20419;-72
2021/04/02 10:55:40;;;;;;;16.67;7.90;;;26.80;40.70;;;;;;5100181;28;20297;-72
2021/04/02 10:58:06;;;;;;;16.80;8.07;;;26.80;40.00;;;;;;5099813;28;20027;-72
2021/04/02 11:00:34;;;;;;;14.30;7.40;;;26.80;40.30;;;;;;5099887;28;20032;-72
2021/04/02 11:03:00;;;;;;;19.00;7.80;;;26.70;42.00;;;;;;5099987;28;20027;-73
2021/04/02 11:05:26;;;;;;;24.42;9.02;;;26.50;41.70;;;;;;5099636;28;20446;-72
2021/04/02 11:07:52;;;;;;;16.10;7.80;;;26.20;41.30;;;;;;5081703;28;20107;-72
2021/04/02 11:10:18;;;;;;;15.20;6.80;;;26.10;40.20;;;;;;5099569;28;20031;-72
2021/04/02 11:12:44;;;;;;;14.60;8.23;;;26.00;44.50;;;;;;5099584;28;20016;-72
2021/04/02 11:15:12;;;;;;;19.08;8.88;;;26.30;42.10;;;;;;5099459;28;20028;-72
2021/04/02 11:17:42;;;;;;;13.50;7.28;;;26.40;42.60;;;;;;5099439;28;20016;-72
2021/04/02 11:20:10;;;;;;;21.83;8.55;;;26.60;41.30;;;;;;5098362;28;20024;-72
2021/04/02 11:22:37;;;;;;;14.13;8.30;;;26.80;40.90;;;;;;5099524;28;20028;-73
2021/04/02 11:25:04;;;;;;;17.63;8.05;;;26.90;39.80;;;;;;5099194;28;20081;-72
2021/04/02 11:27:30;;;;;;;14.40;7.40;;;27.00;39.40;;;;;;5099195;28;20016;-72
2021/04/02 11:29:56;;;;;;;15.95;8.02;;;26.70;41.70;;;;;;5099223;28;20031;-72
2021/04/02 11:32:22;;;;;;;17.45;8.20;;;26.70;40.70;;;;;;5099128;28;20031;-72
2021/04/02 11:34:48;;;;;;;22.05;8.45;;;26.70;41.70;;;;;;5099215;28;20023;-72
2021/04/02 11:37:14;;;;;;;20.63;8.90;;;26.80;40.60;;;;;;5099083;28;20020;-72
2021/04/02 11:39:40;;;;;;;16.60;7.82;;;26.70;41.20;;;;;;5081165;28;20107;-74
2021/04/02 11:42:06;;;;;;;16.88;7.60;;;26.60;40.50;;;;;;5098999;28;20035;-72
2021/04/02 11:44:32;;;;;;;25.50;10.80;;;26.30;42.40;;;;;;5099116;28;20081;-72
2021/04/02 11:46:57;;;;;;;15.80;9.15;;;26.40;42.50;;;;;;5098879;28;20019;-72
2021/04/02 11:49:23;;;;;;;20.98;10.23;;;26.50;41.30;;;;;;5099008;28;20024;-72
2021/04/02 11:51:49;;;;;;;23.10;10.35;;;26.70;43.00;;;;;;5098643;28;20312;-72
2021/04/02 11:54:15;;;;;;;17.45;9.20;;;26.40;42.70;;;;;;5098685;28;20107;-72
2021/04/02 11:56:41;;;;;;;18.20;9.05;;;26.10;41.50;;;;;;5098805;28;20104;-72
2021/04/02 11:59:07;;;;;;;19.00;9.82;;;25.50;43.60;;;;;;5098705;28;20028;-72
2021/04/02 12:01:33;;;;;;;21.85;9.15;;;25.50;44.50;;;;;;5098626;28;20028;-72
2021/04/02 12:03:58;;;;;;;21.52;10.95;;;25.50;44.90;;;;;;5098494;28;20024;-72
2021/04/02 12:06:24;;;;;;;16.50;9.63;;;25.60;43.50;;;;;;5098539;28;20320;-72
2021/04/02 12:08:50;;;;;;;20.05;9.02;;;25.50;44.40;;;;;;5098468;28;20039;-72
2021/04/02 12:11:16;;;;;;;24.42;9.63;;;25.50;42.70;;;;;;5098604;28;20023;-72
2021/04/02 12:13:42;;;;;;;22.02;10.07;;;25.40;44.80;;;;;;5098512;28;20300;-72
2021/04/02 12:16:08;;;;;;;22.80;10.32;;;25.30;43.00;;;;;;5098292;28;20024;-72
2021/04/02 12:18:34;;;;;;;21.98;10.95;;;25.10;43.60;;;;;;5098362;28;20024;-72
2021/04/02 12:21:00;;;;;;;26.08;9.98;;;24.90;43.60;;;;;;5080233;28;20420;-72
2021/04/02 12:23:26;;;;;;;28.67;12.27;;;24.70;46.40;;;;;;5098013;28;20028;-72
2021/04/02 12:25:52;;;;;;;20.27;10.80;;;24.50;43.80;;;;;;5098144;28;20301;-72
2021/04/02 12:28:17;;;;;;;25.45;11.30;;;24.20;45.80;;;;;;5079908;28;20059;-72
2021/04/02 12:30:43;;;;;;;20.67;9.98;;;23.90;45.60;;;;;;5097760;28;20024;-72
2021/04/02 12:33:09;;;;;;;21.48;11.90;;;23.60;46.20;;;;;;5097914;28;20320;-72
2021/04/02 12:35:36;;;;;;;24.45;11.82;;;23.30;47.30;;;;;;5098139;28;20020;-72